Time;durP1;ratioP1;P1;durP2;ratioP2;P2;SDS_P1;SDS_P2;PMS_P1;PMS_P2;Temp;Humidity;BMP_temperature;BMP_pressure;BME280_temperature;BME280_humidity;BME280_pressure;Samples;Min_cycle;Max_cycle;Signal;HPM_P1;HPM_P2
2023/06/28 00:00:08;;;;;;;9.88;4.35;;;512.10;2380.80;;;;;;5082355;28;20025;-76
2023/06/28 00:02:36;;;;;;;11.10;4.28;;;512.00;2380.80;;;;;;5076542;28;20108;-72
2023/06/28 00:05:09;;;;;;;11.18;4.45;;;512.10;2380.80;;;;;;5079144;28;20016;-73
2023/06/28 00:07:35;;;;;;;8.15;4.65;;;512.30;2380.80;;;;;;5082992;28;20032;-72
2023/06/28 00:10:01;;;;;;;10.35;4.45;;;512.30;2380.80;;;;;;5078058;28;20035;-72
2023/06/28 00:12:28;;;;;;;10.48;4.72;;;512.20;2380.80;;;;;;5078210;28;20101;-72
2023/06/28 00:14:54;;;;;;;10.50;4.82;;;512.30;2380.80;;;;;;5077015;28;20044;-72
2023/06/28 00:17:27;;;;;;;7.88;4.53;;;512.30;2380.80;;;;;;5077157;28;20025;-72
2023/06/28 00:19:54;;;;;;;8.73;4.22;;;512.30;2380.80;;;;;;5076162;28;20104;-73
2023/06/28 00:22:23;;;;;;;8.75;5.00;;;512.20;2380.80;;;;;;5082266;28;20029;-72
2023/06/28 00:24:49;;;;;;;10.18;4.10;;;512.20;2380.80;;;;;;5079451;28;20028;-73
2023/06/28 00:27:15;;;;;;;6.18;4.15;;;512.10;2380.80;;;;;;5074864;28;20538;-72
2023/06/28 00:29:40;;;;;;;12.65;4.68;;;512.20;2380.80;;;;;;5086758;28;20028;-72
2023/06/28 00:32:06;;;;;;;8.05;5.07;;;512.20;2380.80;;;;;;5078427;28;20027;-72
2023/06/28 00:34:32;;;;;;;6.57;4.10;;;512.20;2380.80;;;;;;5079723;28;20047;-73
2023/06/28 00:36:57;;;;;;;9.88;4.30;;;512.30;2380.80;;;;;;5084446;28;20470;-72
2023/06/28 00:39:23;;;;;;;7.93;4.13;;;512.30;2380.80;;;;;;5079248;28;20085;-72
2023/06/28 00:41:49;;;;;;;6.32;4.35;;;512.30;2380.80;;;;;;5079662;28;20423;-72
2023/06/28 00:44:14;;;;;;;8.45;4.47;;;512.30;2380.80;;;;;;5073231;28;20421;-78
2023/06/28 00:46:40;;;;;;;8.95;4.20;;;512.30;2380.80;;;;;;5076995;28;20095;-72
2023/06/28 00:49:06;;;;;;;8.20;4.63;;;512.40;2380.80;;;;;;5074327;28;20030;-72
2023/06/28 00:51:33;;;;;;;10.32;5.45;;;;;;;;;;5078127;28;20025;-72
2023/06/28 00:53:59;;;;;;;12.85;4.93;;;512.40;2380.80;;;;;;5073282;28;20039;-73
2023/06/28 00:56:25;;;;;;;11.95;4.80;;;512.20;2380.80;;;;;;5075662;28;20075;-73
2023/06/28 00:58:52;;;;;;;8.75;4.65;;;512.20;2380.80;;;;;;5080204;28;20024;-73
2023/06/28 01:01:18;;;;;;;11.10;3.90;;;512.10;2380.80;;;;;;5075668;28;20107;-73
2023/06/28 01:03:43;;;;;;;8.68;4.05;;;512.10;2380.80;;;;;;5076803;28;20109;-72
2023/06/28 01:06:12;;;;;;;11.88;4.53;;;512.00;2380.80;;;;;;5080470;28;20020;-72
2023/06/28 01:08:41;;;;;;;11.70;4.80;;;512.10;2380.80;;;;;;5079036;28;20109;-73
2023/06/28 01:11:08;;;;;;;12.45;4.72;;;512.00;2380.80;;;;;;5081687;28;20426;-73
2023/06/28 01:13:35;;;;;;;7.63;4.20;;;512.10;2380.80;;;;;;5072971;28;20100;-75
2023/06/28 01:16:01;;;;;;;7.03;4.90;;;487.30;2380.80;;;;;;5073510;28;20030;-72
2023/06/28 01:18:28;;;;;;;7.55;4.65;;;512.10;2380.80;;;;;;5073026;28;20026;-73
2023/06/28 01:20:55;;;;;;;9.68;4.50;;;512.10;2380.80;;;;;;5075954;28;20017;-72
2023/06/28 01:23:25;;;;;;;8.88;4.40;;;487.20;2380.80;;;;;;5080626;28;20488;-76
2023/06/28 01:25:52;;;;;;;11.32;4.90;;;487.30;2380.80;;;;;;5072953;28;20421;-74
2023/06/28 01:28:19;;;;;;;7.72;4.28;;;487.30;2380.80;;;;;;5073219;28;20037;-73
2023/06/28 01:30:48;;;;;;;7.85;3.67;;;487.30;2380.80;;;;;;5072829;28;20021;-73
2023/06/28 01:33:15;;;;;;;10.55;4.90;;;487.30;2380.80;;;;;;5072954;28;20386;-72
2023/06/28 01:35:41;;;;;;;8.20;4.38;;;487.30;2380.80;;;;;;5073200;28;20021;-73
2023/06/28 01:38:09;;;;;;;6.53;4.13;;;487.10;2380.80;;;;;;5073090;28;20017;-73
2023/06/28 01:40:36;;;;;;;11.30;4.40;;;487.10;2380.80;;;;;;5073092;28;20017;-72
2023/06/28 01:43:06;;;;;;;15.13;5.53;;;487.20;2380.80;;;;;;5073033;28;20381;-74
2023/06/28 01:45:33;;;;;;;10.90;4.30;;;487.10;2380.80;;;;;;5073157;28;20028;-72
2023/06/28 01:47:58;;;;;;;10.25;4.20;;;487.10;2380.80;;;;;;5073793;28;20524;-73
2023/06/28 01:50:25;;;;;;;11.65;5.88;;;487.00;2380.80;;;;;;5073141;28;20020;-73
2023/06/28 01:52:51;;;;;;;15.25;4.45;;;487.10;2380.80;;;;;;5072934;28;20196;-72
2023/06/28 01:55:16;;;;;;;6.70;4.63;;;487.00;2380.80;;;;;;5072897;28;20115;-73
2023/06/28 01:57:44;;;;;;;7.25;4.00;;;487.00;2380.80;;;;;;5072551;28;20024;-75
2023/06/28 02:00:10;;;;;;;13.10;5.07;;;487.10;2380.80;;;;;;5072606;28;20466;-72
2023/06/28 02:02:36;;;;;;;8.93;4.05;;;487.10;2380.80;;;;;;5071699;28;20036;-74
2023/06/28 02:05:02;;;;;;;13.57;4.80;;;487.00;2380.80;;;;;;5070343;28;20013;-74
2023/06/28 02:07:28;;;;;;;10.43;4.78;;;487.00;2380.80;;;;;;5072433;28;20458;-77
2023/06/28 02:09:53;;;;;;;10.73;4.57;;;487.00;2380.80;;;;;;5073311;28;20041;-73
2023/06/28 02:12:19;;;;;;;10.65;3.72;;;486.90;2380.80;;;;;;5075081;28;20020;-77
2023/06/28 02:14:44;;;;;;;11.32;4.82;;;486.90;2380.80;;;;;;5075239;28;20099;-72
2023/06/28 02:17:13;;;;;;;6.88;3.97;;;486.90;2380.80;;;;;;5075135;28;20139;-72
2023/06/28 02:19:42;;;;;;;9.60;4.82;;;486.80;2380.80;;;;;;5075363;28;20024;-73
2023/06/28 02:22:08;;;;;;;12.35;3.92;;;486.80;2380.80;;;;;;5074965;28;20062;-72
2023/06/28 02:24:34;;;;;;;11.93;4.10;;;486.80;2380.80;;;;;;5075630;28;20059;-73
2023/06/28 02:27:00;;;;;;;9.52;3.88;;;486.70;2380.80;;;;;;5074836;28;20029;-72
2023/06/28 02:29:26;;;;;;;12.77;4.30;;;486.80;2380.80;;;;;;5074826;28;20040;-81
2023/06/28 02:31:51;;;;;;;8.13;4.32;;;486.80;2380.80;;;;;;5074761;28;20025;-73
2023/06/28 02:34:17;;;;;;;7.18;4.32;;;486.80;2380.80;;;;;;5075217;28;20029;-73
2023/06/28 02:36:43;;;;;;;11.90;4.40;;;486.80;2380.80;;;;;;5072324;28;20074;-75
2023/06/28 02:39:09;;;;;;;13.00;5.30;;;486.70;2380.80;;;;;;5075381;28;20386;-75
2023/06/28 02:41:34;;;;;;;7.43;4.80;;;486.70;2380.80;;;;;;5074755;28;20031;-81
2023/06/28 02:44:00;;;;;;;11.50;5.85;;;486.70;2380.80;;;;;;5074841;28;20059;-72
2023/06/28 02:46:26;;;;;;;8.00;5.03;;;486.70;2380.80;;;;;;5074626;28;20028;-72
2023/06/28 02:48:51;;;;;;;9.90;4.90;;;486.70;2380.80;;;;;;5074905;28;20032;-72
2023/06/28 02:51:17;;;;;;;10.98;4.90;;;486.70;2380.80;;;;;;5074798;28;20024;-76
2023/06/28 02:53:43;;;;;;;10.15;5.13;;;486.60;2380.80;;;;;;5073455;28;20028;-73
2023/06/28 02:56:12;;;;;;;12.05;4.32;;;486.60;2380.80;;;;;;5074693;28;20118;-72
2023/06/28 02:58:38;;;;;;;10.35;5.00;;;486.50;2380.80;;;;;;5074769;28;20021;-72
2023/06/28 03:01:04;;;;;;;10.07;4.90;;;486.50;2380.80;;;;;;5074200;28;20031;-74
2023/06/28 03:03:33;;;;;;;12.32;5.28;;;486.60;2380.80;;;;;;5074747;28;20017;-73
2023/06/28 03:05:59;;;;;;;11.30;5.50;;;486.60;2380.80;;;;;;5073779;28;20025;-73
2023/06/28 03:08:25;;;;;;;8.15;4.93;;;486.50;2380.80;;;;;;5070991;28;20075;-72
2023/06/28 03:10:50;;;;;;;13.38;5.10;;;486.50;2380.80;;;;;;5074035;28;20459;-72
2023/06/28 03:13:16;;;;;;;9.82;5.15;;;486.50;2380.80;;;;;;5073657;28;20051;-74
2023/06/28 03:15:42;;;;;;;14.40;4.38;;;486.40;2380.80;;;;;;5074049;28;20074;-73
2023/06/28 03:18:07;;;;;;;10.30;5.07;;;486.50;2380.80;;;;;;5073565;28;20111;-73
2023/06/28 03:20:33;;;;;;;12.18;5.00;;;486.50;2380.80;;;;;;5072867;28;20421;-73
2023/06/28 03:22:59;;;;;;;13.10;6.03;;;486.50;2380.80;;;;;;5073384;28;20025;-73
2023/06/28 03:25:25;;;;;;;8.82;5.47;;;486.50;2380.80;;;;;;5073106;28;20024;-73
2023/06/28 03:27:50;;;;;;;13.32;5.03;;;486.40;2380.80;;;;;;5073895;28;20086;-73
2023/06/28 03:30:16;;;;;;;9.75;5.45;;;486.40;2380.80;;;;;;5073307;28;20033;-75
2023/06/28 03:32:41;;;;;;;13.48;5.65;;;486.50;2380.80;;;;;;5073258;28;20029;-73
2023/06/28 03:35:07;;;;;;;13.82;6.45;;;486.40;2380.80;;;;;;5073237;28;20122;-72
2023/06/28 03:37:33;;;;;;;11.30;6.00;;;486.50;2380.80;;;;;;5073229;28;20025;-75
2023/06/28 03:39:59;;;;;;;13.88;5.53;;;;;;;;;;5073304;28;20019;-73
2023/06/28 03:42:25;;;;;;;15.00;5.45;;;;;;;;;;5072792;28;20028;-79
2023/06/28 03:44:51;;;;;;;9.10;5.45;;;;;;;;;;5073195;28;20402;-72
2023/06/28 03:47:18;;;;;;;15.60;5.55;;;;;;;;;;5073347;28;20024;-73
2023/06/28 03:49:45;;;;;;;14.43;5.93;;;;;;;;;;5073205;28;20028;-72
2023/06/28 03:52:11;;;;;;;9.48;5.00;;;;;;;;;;5071068;28;20069;-80
2023/06/28 03:54:37;;;;;;;13.55;5.53;;;;;;;;;;5072545;28;20463;-73
2023/06/28 03:57:04;;;;;;;17.65;5.22;;;;;;;;;;5073281;28;20043;-73
2023/06/28 03:59:30;;;;;;;8.13;5.50;;;;;;;;;;5072373;28;20032;-73
2023/06/28 04:01:56;;;;;;;9.95;5.28;;;;;;;;;;5072661;28;20032;-81
2023/06/28 04:04:22;;;;;;;11.05;5.32;;;;;;;;;;5073057;28;20532;-74
2023/06/28 04:06:48;;;;;;;12.43;6.28;;;;;;;;;;5072866;28;20025;-73
2023/06/28 04:09:15;;;;;;;10.35;4.97;;;;;;;;;;5073360;28;20040;-81
2023/06/28 04:11:41;;;;;;;9.98;4.65;;;;;;;;;;5072602;28;20099;-81
2023/06/28 04:14:07;;;;;;;12.32;4.55;;;;;;;;;;5072265;28;20039;-74
2023/06/28 04:16:33;;;;;;;10.10;5.05;;;;;;;;;;5072377;28;20032;-72
2023/06/28 04:19:00;;;;;;;11.32;4.93;;;;;;;;;;5072096;28;20024;-81
2023/06/28 04:21:26;;;;;;;9.90;4.90;;;;;;;;;;5072842;28;20104;-74
2023/06/28 04:23:52;;;;;;;13.93;5.20;;;;;;;;;;5072297;28;20111;-74
2023/06/28 04:26:19;;;;;;;12.57;5.38;;;;;;;;;;5072429;28;20025;-79
2023/06/28 04:28:46;;;;;;;9.75;5.00;;;;;;;;;;5072410;28;20140;-73
2023/06/28 04:31:12;;;;;;;11.70;4.80;;;;;;;;;;5072512;28;20067;-73
2023/06/28 04:33:39;;;;;;;11.00;4.50;;;;;;;;;;5072155;28;20036;-77
2023/06/28 04:36:05;;;;;;;9.70;4.88;;;;;;;;;;5072668;28;20012;-74
2023/06/28 04:38:32;;;;;;;11.77;5.03;;;;;;;;;;5072214;28;20020;-73
2023/06/28 04:40:58;;;;;;;12.27;5.18;;;;;;;;;;5070107;28;20094;-73
2023/06/28 04:43:24;;;;;;;7.78;5.07;;;;;;;;;;5071864;28;20389;-82
2023/06/28 04:45:50;;;;;;;9.38;4.63;;;;;;;;;;5071911;28;20119;-75
2023/06/28 04:48:16;;;;;;;12.05;4.85;;;;;;;;;;5078206;28;20029;-72
2023/06/28 04:50:43;;;;;;;13.48;5.32;;;;;;;;;;5076097;28;20056;-72
2023/06/28 04:53:09;;;;;;;14.50;4.63;;;;;;;;;;5080138;28;20013;-74
2023/06/28 04:55:35;;;;;;;10.73;5.70;;;;;;;;;;5078281;28;20383;-74
2023/06/28 04:58:02;;;;;;;15.02;5.35;;;;;;;;;;5073987;28;20371;-74
2023/06/28 05:00:29;;;;;;;8.98;4.00;;;;;;;;;;5074064;28;20016;-75
2023/06/28 05:02:56;;;;;;;10.57;4.65;;;;;;;;;;5078064;28;20021;-75
2023/06/28 05:05:23;;;;;;;11.07;4.60;;;;;;;;;;5076903;28;20016;-84
2023/06/28 05:07:49;;;;;;;8.13;4.90;;;;;;;;;;5065884;28;20029;-81
2023/06/28 05:10:15;;;;;;;11.13;4.68;;;;;;;;;;5061567;28;20094;-77
2023/06/28 05:12:41;;;;;;;12.07;4.38;;;;;;;;;;5060443;28;20025;-78
2023/06/28 05:15:07;;;;;;;8.15;4.70;;;;;;;;;;5072357;28;20397;-79
2023/06/28 05:17:33;;;;;;;6.70;4.53;;;;;;;;;;5084410;28;20145;-76
2023/06/28 05:19:59;;;;;;;7.50;4.60;;;;;;;;;;5078476;28;20052;-76
2023/06/28 05:22:27;;;;;;;10.05;4.80;;;;;;;;;;5079813;28;20052;-76
2023/06/28 05:24:53;;;;;;;7.97;5.13;;;;;;;;;;5084549;28;20024;-75
2023/06/28 05:27:20;;;;;;;8.38;4.90;;;486.80;2380.80;;;;;;5074500;28;20079;-75
2023/06/28 05:29:46;;;;;;;10.75;5.00;;;486.60;2380.80;;;;;;5075765;28;20035;-75
2023/06/28 05:32:13;;;;;;;13.05;5.47;;;486.50;2380.80;;;;;;5075697;28;20024;-75
2023/06/28 05:34:39;;;;;;;10.27;5.47;;;486.50;2380.80;;;;;;5078355;28;20020;-76
2023/06/28 05:37:06;;;;;;;10.10;4.90;;;486.50;2380.80;;;;;;5087703;28;20095;-77
2023/06/28 05:39:31;;;;;;;14.75;5.47;;;486.50;2380.80;;;;;;5082774;28;20029;-76
2023/06/28 05:41:57;;;;;;;10.55;5.20;;;486.60;2380.80;;;;;;5080253;28;20482;-76
2023/06/28 05:44:23;;;;;;;11.23;4.97;;;486.60;2380.80;;;;;;5081559;28;20025;-75
2023/06/28 05:46:49;;;;;;;7.15;4.93;;;486.70;2380.80;;;;;;5087268;28;20025;-78
2023/06/28 05:49:15;;;;;;;8.90;4.95;;;486.70;2380.80;;;;;;5080477;28;20029;-76
2023/06/28 05:51:41;;;;;;;7.78;4.88;;;486.80;2380.80;;;;;;5075754;28;20086;-76
2023/06/28 05:54:06;;;;;;;8.25;4.05;;;486.80;2380.80;;;;;;5061220;28;20032;-77
2023/06/28 05:56:32;;;;;;;10.90;5.10;;;486.80;2380.80;;;;;;5087731;28;20432;-82
2023/06/28 05:58:58;;;;;;;6.18;4.47;;;486.80;2380.80;;;;;;5076768;28;20055;-85
2023/06/28 06:01:24;;;;;;;12.27;4.80;;;486.80;2380.80;;;;;;5079728;28;20028;-77
2023/06/28 06:03:50;;;;;;;10.50;5.85;;;;;;;;;;5084690;28;20070;-77
2023/06/28 06:06:17;;;;;;;8.95;5.50;;;;;;;;;;5079841;28;20028;-78
2023/06/28 06:08:44;;;;;;;9.55;5.85;;;;;;;;;;5082271;28;20159;-77
2023/06/28 06:11:11;;;;;;;12.35;5.57;;;;;;;;;;5068108;28;20028;-77
2023/06/28 06:13:37;;;;;;;11.50;4.72;;;;;;;;;;5077385;28;20486;-77
2023/06/28 06:16:03;;;;;;;8.93;5.65;;;;;;;;;;5078529;28;20024;-76
2023/06/28 06:18:29;;;;;;;9.38;5.55;;;;;;;;;;5066119;28;20028;-77
2023/06/28 06:20:55;;;;;;;8.05;6.05;;;;;;;;;;5061520;28;20025;-77
2023/06/28 06:23:21;;;;;;;18.08;6.43;;;;;;;;;;5083792;28;20086;-77
2023/06/28 06:25:47;;;;;;;11.65;4.80;;;;;;;;;;5063222;28;20097;-77
2023/06/28 06:28:13;;;;;;;7.70;4.90;;;;;;;;;;5059889;28;20033;-77
2023/06/28 06:30:39;;;;;;;9.00;5.72;;;;;;;;;;5074110;28;20055;-79
2023/06/28 06:33:05;;;;;;;9.55;5.05;;;;;;;;;;5081665;28;20052;-77
2023/06/28 06:35:31;;;;;;;10.27;4.97;;;;;;;;;;5077867;28;20052;-79
2023/06/28 06:37:57;;;;;;;9.38;4.93;;;;;;;;;;5085550;28;20017;-77
2023/06/28 06:40:24;;;;;;;9.35;4.53;;;;;;;;;;5082040;28;20474;-76
2023/06/28 06:42:50;;;;;;;6.65;4.45;;;;;;;;;;5076040;28;20029;-77
2023/06/28 06:45:19;;;;;;;10.98;5.63;;;;;;;;;;5081013;28;20024;-76
2023/06/28 06:47:45;;;;;;;9.68;6.93;;;512.10;2380.80;;;;;;5076946;28;20032;-76
2023/06/28 06:50:11;;;;;;;17.70;9.02;;;487.30;2380.80;;;;;;5077446;28;20089;-77
2023/06/28 06:52:40;;;;;;;15.40;6.93;;;487.30;2380.80;;;;;;5084081;28;20072;-76
2023/06/28 06:55:06;;;;;;;11.13;6.47;;;487.30;2380.80;;;;;;5075637;28;20052;-80
2023/06/28 06:57:32;;;;;;;9.80;5.43;;;487.20;2380.80;;;;;;5087311;28;20040;-75
2023/06/28 06:59:58;;;;;;;10.55;6.00;;;487.20;2380.80;;;;;;5080356;28;20021;-76
2023/06/28 07:02:23;;;;;;;7.55;5.22;;;487.20;2380.80;;;;;;5081068;28;20363;-76
2023/06/28 07:04:49;;;;;;;9.40;5.95;;;487.20;2380.80;;;;;;5078752;28;20056;-76
2023/06/28 07:07:15;;;;;;;10.48;5.25;;;487.20;2380.80;;;;;;5078082;28;20036;-78
2023/06/28 07:09:41;;;;;;;11.40;5.40;;;487.30;2380.80;;;;;;5080667;28;20040;-76
2023/06/28 07:12:08;;;;;;;9.73;5.45;;;487.30;2380.80;;;;;;5078277;28;20024;-75
2023/06/28 07:14:34;;;;;;;11.00;5.40;;;;;;;;;;5080158;28;20035;-76
2023/06/28 07:17:00;;;;;;;9.40;5.32;;;;;;;;;;5080613;28;20028;-78
2023/06/28 07:19:26;;;;;;;11.30;5.35;;;;;;;;;;5061985;28;20036;-76
2023/06/28 07:21:52;;;;;;;11.13;6.18;;;;;;;;;;5077220;28;20428;-77
2023/06/28 07:24:19;;;;;;;11.18;5.30;;;;;;;;;;5082809;28;20040;-83
2023/06/28 07:26:45;;;;;;;15.55;5.95;;;;;;;;;;5060025;28;20411;-78
2023/06/28 07:29:11;;;;;;;12.13;6.35;;;;;;;;;;5077532;28;20029;-79
2023/06/28 07:31:37;;;;;;;11.18;6.70;;;;;;;;;;5081073;28;20420;-75
2023/06/28 07:34:05;;;;;;;11.60;6.43;;;;;;;;;;5084558;28;20030;-78
2023/06/28 07:36:32;;;;;;;12.93;6.50;;;;;;;;;;5068887;28;20020;-79
2023/06/28 07:38:58;;;;;;;15.10;7.38;;;;;;;;;;5076710;28;20032;-76
2023/06/28 07:41:24;;;;;;;11.15;6.30;;;;;;;;;;5080217;28;20494;-76
2023/06/28 07:43:50;;;;;;;12.77;6.80;;;;;;;;;;5076053;28;20025;-77
2023/06/28 07:46:17;;;;;;;15.93;7.80;;;;;;;;;;5078121;28;20111;-76
2023/06/28 07:48:42;;;;;;;13.90;7.13;;;512.30;2380.80;;;;;;5076986;28;20111;-76
2023/06/28 07:51:09;;;;;;;11.63;7.47;;;512.20;2380.80;;;;;;5079188;28;20105;-75
2023/06/28 07:53:35;;;;;;;11.73;6.80;;;512.10;2380.80;;;;;;5076506;28;20034;-76
2023/06/28 07:56:01;;;;;;;13.52;7.03;;;512.20;2380.80;;;;;;5077545;28;20040;-76
2023/06/28 07:58:27;;;;;;;13.70;8.13;;;512.20;2380.80;;;;;;5080112;28;20496;-75
2023/06/28 08:00:53;;;;;;;13.20;7.53;;;512.20;2380.80;;;;;;5068420;28;20467;-75
2023/06/28 08:03:19;;;;;;;14.95;7.07;;;512.00;2380.80;;;;;;5086230;28;20470;-76
2023/06/28 08:05:45;;;;;;;14.82;7.28;;;512.10;2380.80;;;;;;5072414;28;20060;-77
2023/06/28 08:08:11;;;;;;;14.07;7.18;;;512.10;2380.80;;;;;;5083966;28;20020;-76
2023/06/28 08:10:36;;;;;;;10.75;7.22;;;512.10;2380.80;;;;;;5078340;28;20024;-77
2023/06/28 08:13:02;;;;;;;15.30;7.70;;;512.10;2380.80;;;;;;5083260;28;20063;-76
2023/06/28 08:15:28;;;;;;;13.18;7.07;;;512.10;2380.80;;;;;;5074408;28;20073;-75
2023/06/28 08:17:53;;;;;;;15.93;7.82;;;512.00;2380.80;;;;;;5084297;28;20028;-76
2023/06/28 08:20:19;;;;;;;11.45;6.68;;;512.00;2380.80;;;;;;5060001;28;20029;-76
2023/06/28 08:22:45;;;;;;;11.70;6.70;;;512.00;2380.80;;;;;;5092244;28;20024;-75
2023/06/28 08:25:11;;;;;;;14.80;7.63;;;512.00;2380.80;;;;;;5076312;28;20028;-75
2023/06/28 08:27:37;;;;;;;20.05;7.47;;;512.00;2380.80;;;;;;5078787;28;20158;-76
2023/06/28 08:30:03;;;;;;;12.10;7.22;;;512.00;2380.80;;;;;;5077090;28;20082;-76
2023/06/28 08:32:28;;;;;;;12.50;7.47;;;512.10;2380.80;;;;;;5075961;28;20020;-75
2023/06/28 08:34:54;;;;;;;15.38;7.78;;;512.00;2380.80;;;;;;5079572;28;20074;-75
2023/06/28 08:37:20;;;;;;;11.63;7.10;;;512.00;2380.80;;;;;;5084669;28;20029;-76
2023/06/28 08:39:45;;;;;;;13.95;7.78;;;487.30;2380.80;;;;;;5076085;28;20041;-77
2023/06/28 08:42:12;;;;;;;10.10;7.47;;;512.10;2380.80;;;;;;5078444;28;20024;-75
2023/06/28 08:44:38;;;;;;;14.18;8.20;;;512.10;2380.80;;;;;;5074031;28;20531;-77
2023/06/28 08:47:06;;;;;;;11.93;8.10;;;512.10;2380.80;;;;;;5074801;28;20017;-76
2023/06/28 08:49:35;;;;;;;13.07;8.05;;;512.10;2380.80;;;;;;5075971;28;20040;-77
2023/06/28 08:52:01;;;;;;;16.20;9.02;;;512.00;2380.80;;;;;;5091013;28;20111;-75
2023/06/28 08:54:28;;;;;;;11.50;8.40;;;512.00;2380.80;;;;;;5075377;28;20126;-76
2023/06/28 08:56:58;;;;;;;16.45;9.70;;;487.20;2380.80;;;;;;5081279;28;20437;-77
2023/06/28 08:59:23;;;;;;;16.02;8.57;;;487.30;2380.80;;;;;;5083516;28;20359;-76
2023/06/28 09:01:54;;;;;;;14.30;8.70;;;512.00;2380.80;;;;;;5079925;28;20027;-77
2023/06/28 09:04:22;;;;;;;12.48;9.00;;;487.30;2380.80;;;;;;5075107;28;20041;-76
2023/06/28 09:06:48;;;;;;;13.25;8.20;;;487.30;2380.80;;;;;;5076928;28;20116;-76
2023/06/28 09:09:16;;;;;;;15.98;9.07;;;487.30;2380.80;;;;;;5071643;28;20068;-80
2023/06/28 09:11:41;;;;;;;16.70;8.90;;;487.30;2380.80;;;;;;5082515;28;20028;-77
2023/06/28 09:14:08;;;;;;;15.32;8.10;;;;;;;;;;5066915;28;20498;-76
2023/06/28 09:16:34;;;;;;;17.05;7.60;;;;;;;;;;5081103;28;20024;-76
2023/06/28 09:19:00;;;;;;;10.40;6.30;;;;;;;;;;5083480;28;20034;-76
2023/06/28 09:21:28;;;;;;;13.23;6.35;;;487.20;2380.80;;;;;;5069559;28;20103;-76
2023/06/28 09:23:54;;;;;;;10.60;6.63;;;487.10;2380.80;;;;;;5082648;28;20028;-81
2023/06/28 09:26:21;;;;;;;10.77;6.75;;;487.10;2380.80;;;;;;5081911;28;20527;-76
2023/06/28 09:28:48;;;;;;;10.77;5.82;;;487.00;2380.80;;;;;;5083923;28;20135;-75
2023/06/28 09:31:18;;;;;;;9.88;6.38;;;486.80;2380.80;;;;;;5075906;28;20103;-76
2023/06/28 09:33:44;;;;;;;8.80;5.72;;;486.70;2380.80;;;;;;5080247;28;20485;-80
2023/06/28 09:36:11;;;;;;;9.50;5.95;;;486.70;2380.80;;;;;;5057794;28;20037;-76
2023/06/28 09:38:44;;;;;;;10.57;5.93;;;486.60;2380.80;;;;;;5075462;28;20028;-78
2023/06/28 09:41:10;;;;;;;13.05;5.63;;;486.50;2380.80;;;;;;5078358;28;20028;-76
2023/06/28 09:43:36;;;;;;;10.98;5.80;;;486.90;2380.80;;;;;;5090084;28;20082;-76
2023/06/28 09:46:16;;;;;;;9.45;5.20;;;486.80;2380.80;;;;;;5077264;28;20064;-76
2023/06/28 09:48:48;;;;;;;8.80;4.80;;;486.80;2380.80;;;;;;5078647;28;20032;-79
2023/06/28 09:51:17;;;;;;;7.93;4.93;;;486.80;2380.80;;;;;;5074067;28;20089;-77
2023/06/28 09:53:52;;;;;;;11.05;4.90;;;486.80;2380.80;;;;;;5062775;28;20078;-79
2023/06/28 09:56:18;;;;;;;7.45;4.70;;;486.90;2380.80;;;;;;5076530;28;20513;-77
2023/06/28 09:58:47;;;;;;;6.72;4.78;;;486.80;2380.80;;;;;;5082418;28;20482;-80
2023/06/28 10:01:15;;;;;;;14.82;5.60;;;486.90;2380.80;;;;;;5088907;28;20097;-76
2023/06/28 10:03:45;;;;;;;10.25;5.03;;;486.90;2380.80;;;;;;5068009;28;20077;-78
2023/06/28 10:06:13;;;;;;;7.38;3.80;;;487.00;2380.80;;;;;;5084097;28;20066;-76
2023/06/28 10:08:39;;;;;;;11.30;4.50;;;487.00;2380.80;;;;;;5064881;28;20039;-76
2023/06/28 10:11:14;;;;;;;7.80;3.97;;;487.00;2380.80;;;;;;5064266;28;20055;-75
2023/06/28 10:13:48;;;;;;;8.75;4.10;;;487.30;2380.80;;;;;;5090312;28;20120;-75
2023/06/28 10:16:17;;;;;;;7.57;4.80;;;487.30;2380.80;;;;;;5074576;28;20111;-74
2023/06/28 10:18:43;;;;;;;7.18;4.38;;;512.10;2380.80;;;;;;5064088;28;20052;-75
2023/06/28 10:21:09;;;;;;;7.18;3.90;;;512.40;2380.80;;;;;;5083813;28;20052;-75
2023/06/28 10:23:38;;;;;;;8.98;4.40;;;512.50;2380.80;;;;;;5075622;28;20025;-76
2023/06/28 10:26:05;;;;;;;8.77;3.75;;;512.70;2380.80;;;;;;5076097;28;20024;-75
2023/06/28 10:28:36;;;;;;;6.90;3.58;;;512.70;2380.80;;;;;;5080999;28;20032;-77
2023/06/28 10:31:06;;;;;;;7.30;3.88;;;512.80;2380.80;;;;;;5071293;28;20020;-75
2023/06/28 10:33:36;;;;;;;6.75;3.33;;;512.80;2380.80;;;;;;5079010;28;20020;-76
2023/06/28 10:36:03;;;;;;;6.60;4.18;;;537.70;2406.40;;;;;;5077773;28;20062;-76
2023/06/28 10:38:48;;;;;;;7.80;3.33;;;537.70;2406.40;;;;;;5066159;28;20052;-79
2023/06/28 10:41:15;;;;;;;8.80;2.80;;;537.80;2406.40;;;;;;5076155;28;20036;-75
2023/06/28 10:43:41;;;;;;;4.90;2.00;;;537.90;2406.40;;;;;;5077434;28;20424;-75
2023/06/28 10:46:23;;;;;;;9.60;2.30;;;537.90;2406.40;;;;;;5082786;28;20024;-76
2023/06/28 10:48:56;;;;;;;8.25;2.92;;;538.00;2406.40;;;;;;5067826;28;20047;-76
2023/06/28 10:51:25;;;;;;;3.67;2.10;;;537.90;2406.40;;;;;;5085582;28;20024;-75
2023/06/28 10:53:53;;;;;;;3.92;2.40;;;538.00;2406.40;;;;;;5077273;28;20033;-72
2023/06/28 10:56:20;;;;;;;4.05;2.60;;;563.30;2432.00;;;;;;5086774;28;20131;-73
2023/06/28 10:58:47;;;;;;;4.43;2.20;;;563.50;2432.00;;;;;;5081263;28;20032;-72
2023/06/28 11:01:32;;;;;;;4.13;2.35;;;563.40;2432.00;;;;;;5077994;28;20035;-72
2023/06/28 11:04:13;;;;;;;3.33;2.03;;;;;;;;;;5074423;28;20012;-72
2023/06/28 11:06:40;;;;;;;4.47;2.50;;;;;;;;;;5070456;28;20033;-73
2023/06/28 11:09:16;;;;;;;3.70;2.03;;;563.70;2432.00;;;;;;5085292;28;20077;-73
2023/06/28 11:11:42;;;;;;;5.22;2.80;;;563.60;2406.40;;;;;;5086730;28;20024;-73
2023/06/28 11:14:29;;;;;;;4.60;2.58;;;563.50;2329.60;;;;;;5079232;28;20029;-72
2023/06/28 11:17:02;;;;;;;5.32;2.40;;;563.30;2252.80;;;;;;5072649;28;20047;-77
2023/06/28 11:19:28;;;;;;;3.25;1.77;;;563.30;2252.80;;;;;;5079138;28;20111;-72
2023/06/28 11:21:57;;;;;;;4.80;2.17;;;563.30;2150.40;;;;;;5081744;28;20024;-73
2023/06/28 11:24:44;;;;;;;5.43;2.10;;;563.30;2406.40;;;;;;5077272;28;20040;-73
2023/06/28 11:27:14;;;;;;;5.03;1.70;;;563.50;2355.20;;;;;;5079051;28;20028;-73
2023/06/28 11:30:00;;;;;;;4.53;2.05;;;563.70;2304.00;;;;;;5084491;28;20089;-72
2023/06/28 11:32:33;;;;;;;4.50;1.60;;;563.90;2176.00;;;;;;5076010;28;20024;-75
2023/06/28 11:35:00;;;;;;;6.72;2.08;;;564.00;2073.60;;;;;;5077851;28;20083;-71
2023/06/28 11:37:26;;;;;;;1.95;1.23;;;588.80;2073.60;;;;;;5076509;28;20052;-74
2023/06/28 11:39:52;;;;;;;4.53;1.65;;;588.80;2099.20;;;;;;5083398;28;20539;-71
2023/06/28 11:42:19;;;;;;;2.80;1.58;;;589.10;2048.00;;;;;;5078443;28;20032;-70
2023/06/28 11:44:50;;;;;;;5.05;1.77;;;589.20;1945.60;;;;;;5077137;28;20023;-72
2023/06/28 11:47:17;;;;;;;4.80;1.92;;;589.40;1945.60;;;;;;5076808;28;20020;-73
2023/06/28 11:49:44;;;;;;;2.90;1.73;;;589.60;1996.80;;;;;;5081138;28;20055;-71
2023/06/28 11:52:10;;;;;;;3.95;2.00;;;614.50;1868.80;;;;;;5077753;28;20020;-71
2023/06/28 11:54:36;;;;;;;3.67;1.90;;;614.80;1817.60;;;;;;5077732;28;20021;-72
2023/06/28 11:57:01;;;;;;;2.88;1.42;;;614.90;2073.60;;;;;;5079477;28;20029;-71
2023/06/28 11:59:29;;;;;;;3.53;2.35;;;615.10;1792.00;;;;;;5081008;28;20025;-72
2023/06/28 12:02:09;;;;;;;3.95;1.77;;;615.10;1740.80;;;;;;5063840;28;20029;-72
2023/06/28 12:04:36;;;;;;;3.42;1.60;;;640.00;1638.40;;;;;;5080800;28;20042;-72
2023/06/28 12:07:06;;;;;;;4.07;1.90;;;640.10;1689.60;;;;;;5083488;28;20021;-79
2023/06/28 12:09:33;;;;;;;3.13;1.52;;;640.10;1715.20;;;;;;5081028;28;20036;-83
2023/06/28 12:12:05;;;;;;;4.13;2.10;;;640.30;1689.60;;;;;;5080768;28;20017;-73
2023/06/28 12:14:38;;;;;;;3.40;1.80;;;640.20;1715.20;;;;;;5079685;28;20359;-72
2023/06/28 12:17:04;;;;;;;3.03;1.60;;;640.40;1664.00;;;;;;5081095;28;20107;-76
2023/06/28 12:19:33;;;;;;;2.83;2.00;;;640.60;1612.80;;;;;;5077685;28;20025;-70
2023/06/28 12:22:06;;;;;;;3.55;1.70;;;640.60;1664.00;;;;;;5081851;28;20024;-72
2023/06/28 12:24:36;;;;;;;2.70;1.60;;;640.60;1587.20;;;;;;5085903;28;20063;-76
2023/06/28 12:27:07;;;;;;;2.85;1.60;;;640.80;1664.00;;;;;;5076249;28;20024;-76
2023/06/28 12:29:35;;;;;;;3.63;1.58;;;640.90;1612.80;;;;;;5078098;28;20127;-71
2023/06/28 12:32:05;;;;;;;2.70;1.40;;;665.60;1638.40;;;;;;5085825;28;20024;-72
2023/06/28 12:34:34;;;;;;;2.20;1.23;;;665.70;1561.60;;;;;;5086530;28;20024;-71
2023/06/28 12:37:08;;;;;;;2.42;1.30;;;665.90;1587.20;;;;;;5076514;28;20035;-71
2023/06/28 12:39:37;;;;;;;2.85;1.33;;;665.60;1510.40;;;;;;5082711;28;20027;-71
2023/06/28 12:42:09;;;;;;;4.95;1.60;;;665.60;1536.00;;;;;;5071952;28;20028;-72
2023/06/28 12:44:55;;;;;;;3.08;1.30;;;665.70;1561.60;;;;;;5081567;28;20024;-71